Terminal Aerodrome Forecast
Issued by NWS

Home | Current Version | Previous Version | Text Only | Print | Product List | Glossary On
Versions: 1 2 3 4 5 6 7 8 9 10 11 12 13 14 15 16 17 18 19
000
FTAK31 PAJN 281100
TAFAYA
TAF
PAYA 281125Z 2812/2912 00000KT P6SM BCFG SCT008 OVC090
      TEMPO 2814/2816 4SM BR BKN008
     FM281600 VRB02KT P6SM BKN080
     FM282100 24007KT P6SM VCSH SCT050 BKN100
     FM290300 VRB04KT P6SM VCSH BKN100
     FM290900 15003KT P6SM -RA BKN050 OVC080
      AMD LTD TO CLD VIS AND WIND 2901/2910=

USA.gov is the U.S. government's official web portal to all federal, state and local government web resources and services.